Time;durP1;ratioP1;P1;durP2;ratioP2;P2;SDS_P1;SDS_P2;PMS_P1;PMS_P2;Temp;Humidity;BMP_temperature;BMP_pressure;BME280_temperature;BME280_humidity;BME280_pressure;Samples;Min_cycle;Max_cycle;Signal;HPM_P1;HPM_P2
2021/11/19 00:20:10;294103.00;0.98;507.78;0.00;0.00;0.62;;;;;10.00;1.30;;;;;;2514913;55;3556;31
2021/11/19 01:07:08;458196.00;1.53;789.88;38246.00;0.13;66.85;;;;;7.40;1.00;;;;;;2283991;61;971;-87
2021/11/19 01:14:35;450041.00;1.50;775.85;0.00;0.00;0.62;;;;;7.20;1.00;;;;;;2279810;61;1299;-86
2021/11/19 01:22:00;581107.00;1.94;1001.61;95075.00;0.32;165.07;;;;;7.70;2.50;;;;;;2283994;61;1330;-86
2021/11/19 01:41:50;642633.00;2.14;1107.89;86763.00;0.29;150.72;;;;;6.90;2.60;;;;;;2476691;40;3673;31
2021/11/19 01:56:38;411841.00;1.37;710.16;121863.00;0.41;211.30;;;;;7.50;1.00;;;;;;2517496;39;3587;31
2021/11/19 02:06:30;412370.00;1.37;711.07;145351.00;0.48;251.79;;;;;8.00;1.00;;;;;;2440571;39;3629;31
2021/11/19 02:11:39;165889.00;0.55;287.18;0.00;0.00;0.62;;;;;7.30;1.00;;;;;;2283114;61;1403;-83
2021/11/19 02:16:39;23810.00;0.08;41.87;0.00;0.00;0.62;;;;;8.20;1.00;;;;;;2283613;61;1290;-86
2021/11/19 02:21:40;92081.00;0.31;159.90;0.00;0.00;0.62;;;;;8.10;1.00;;;;;;2279467;61;1337;-86
2021/11/19 02:39:09;229279.00;0.76;396.31;0.00;0.00;0.62;;;;;7.70;1.00;;;;;;2285953;61;1409;-89
2021/11/19 02:41:45;379529.00;1.27;654.62;128843.00;0.43;223.33;;;;;7.20;1.00;;;;;;2277897;61;1053;-89
2021/11/19 02:44:15;31475.00;0.10;55.14;0.00;0.00;0.62;;;;;6.90;1.00;;;;;;2276339;61;1923;-88
2021/11/19 02:46:45;50160.00;0.17;87.46;0.00;0.00;0.62;;;;;6.90;1.00;;;;;;2272980;61;1364;-88
2021/11/19 02:49:12;185959.00;0.62;321.75;0.00;0.00;0.62;;;;;7.00;1.00;;;;;;2276340;61;1074;-88
2021/11/19 02:51:40;53134.00;0.18;92.61;0.00;0.00;0.62;;;;;6.70;1.00;;;;;;2276406;61;990;-88
2021/11/19 02:54:11;165157.00;0.55;285.92;0.00;0.00;0.62;;;;;6.60;1.00;;;;;;2269613;61;969;-89
2021/11/19 02:56:38;113602.00;0.38;197.04;0.00;0.00;0.62;;;;;6.70;1.00;;;;;;2273002;61;1433;-89
2021/11/19 02:59:07;228917.00;0.76;395.69;46929.00;0.16;81.87;;;;;6.60;1.00;;;;;;2273023;61;1005;-88
2021/11/19 03:01:37;127271.00;0.42;220.62;0.00;0.00;0.62;;;;;6.50;1.00;;;;;;2278161;61;1059;-89
2021/11/19 03:04:11;0.00;0.00;0.62;0.00;0.00;0.62;;;;;6.40;1.00;;;;;;2284975;61;1984;-89
2021/11/19 03:06:42;10499.00;0.03;18.81;0.00;0.00;0.62;;;;;6.80;1.00;;;;;;2277799;61;1447;-89
2021/11/19 03:09:12;58096.00;0.19;101.19;0.00;0.00;0.62;;;;;7.10;1.00;;;;;;2284941;61;1019;-90
2021/11/19 03:11:39;295.00;0.00;1.13;0.00;0.00;0.62;;;;;7.10;2.20;;;;;;2277803;61;1030;-88
2021/11/19 03:14:09;13082.00;0.04;23.29;0.00;0.00;0.62;;;;;7.30;1.00;;;;;;2276264;61;982;-89
2021/11/19 03:16:36;76779.00;0.26;133.47;0.00;0.00;0.62;;;;;7.80;3.20;;;;;;2268155;61;1413;-89
2021/11/19 03:19:05;9856.00;0.03;17.70;0.00;0.00;0.62;;;;;8.00;5.10;;;;;;2268220;61;1060;-89
2021/11/19 03:21:34;14227.00;0.05;25.27;0.00;0.00;0.62;;;;;8.30;1.00;;;;;;2268216;61;1016;-87
2021/11/19 03:24:02;4515.00;0.02;8.45;0.00;0.00;0.62;;;;;8.30;1.00;;;;;;2268073;61;1997;-88
2021/11/19 03:26:33;35918.00;0.12;62.83;0.00;0.00;0.62;;;;;8.20;1.00;;;;;;2263957;61;1313;-89
2021/11/19 03:29:00;26138.00;0.09;45.90;0.00;0.00;0.62;;;;;7.90;1.00;;;;;;2264142;61;925;-88
2021/11/19 03:31:27;16907.00;0.06;29.91;0.00;0.00;0.62;;;;;7.60;1.00;;;;;;2254935;61;1063;-89
2021/11/19 03:33:54;11068.00;0.04;19.80;0.00;0.00;0.62;;;;;7.60;1.00;;;;;;2262192;61;1002;-88
2021/11/19 03:36:24;0.00;0.00;0.62;0.00;0.00;0.62;;;;;7.70;1.00;;;;;;2272096;61;1707;-90
2021/11/19 03:38:54;64394.00;0.21;112.07;0.00;0.00;0.62;;;;;7.70;1.00;;;;;;2272227;61;980;-89
2021/11/19 03:41:24;28506.00;0.10;50.00;0.00;0.00;0.62;;;;;7.30;1.00;;;;;;2272864;61;1030;-87
2021/11/19 03:43:56;75802.00;0.25;131.79;0.00;0.00;0.62;;;;;6.60;1.00;;;;;;2277978;61;1080;-89
2021/11/19 03:46:31;57397.00;0.19;99.98;0.00;0.00;0.62;;;;;6.60;1.00;;;;;;2277673;61;1934;-87
2021/11/19 03:48:58;205603.00;0.69;355.57;67687.00;0.23;117.76;;;;;6.00;1.00;;;;;;2284905;61;947;-87
2021/11/19 03:51:30;291045.00;0.97;502.53;94821.00;0.32;164.63;;;;;5.70;1.40;;;;;;2274394;61;936;-88
2021/11/19 03:53:57;312136.00;1.04;538.78;98272.00;0.33;170.59;;;;;5.50;1.00;;;;;;2284886;61;919;-87
2021/11/19 03:56:25;118729.00;0.40;205.89;30933.00;0.10;54.20;;;;;5.40;1.00;;;;;;2277635;61;1473;-86
2021/11/19 03:58:53;0.00;0.00;0.62;0.00;0.00;0.62;;;;;5.50;1.00;;;;;;2284818;61;929;-88
2021/11/19 04:01:24;45556.00;0.15;79.50;0.00;0.00;0.62;;;;;5.50;1.00;;;;;;2277647;61;1007;-87
2021/11/19 04:03:52;21557.00;0.07;37.97;0.00;0.00;0.62;;;;;5.60;1.10;;;;;;2277616;61;970;-88
2021/11/19 04:06:21;115830.00;0.39;200.89;0.00;0.00;0.62;;;;;6.10;4.40;;;;;;2276418;61;2011;-90
2021/11/19 04:08:49;23224.00;0.08;40.85;0.00;0.00;0.62;;;;;7.00;6.30;;;;;;2276928;61;1021;-87
2021/11/19 04:11:16;2209.00;0.01;4.45;0.00;0.00;0.62;;;;;8.00;4.40;;;;;;2270181;61;1019;-87
2021/11/19 04:13:46;6334.00;0.02;11.60;0.00;0.00;0.62;;;;;8.20;1.90;;;;;;2270207;61;1006;-88
2021/11/19 04:16:24;4663.00;0.02;8.70;0.00;0.00;0.62;;;;;7.60;1.00;;;;;;2268756;61;970;-88
2021/11/19 04:18:52;247701.00;0.83;428.00;11770.00;0.04;21.02;;;;;7.20;1.00;;;;;;2268786;61;1035;-89
2021/11/19 04:21:21;86187.00;0.29;149.72;0.00;0.00;0.62;;;;;6.80;1.00;;;;;;2268781;61;1019;-88
2021/11/19 04:23:49;0.00;0.00;0.62;0.00;0.00;0.62;;;;;6.80;1.00;;;;;;2270767;61;1013;-88
2021/11/19 04:26:18;153006.00;0.51;264.99;0.00;0.00;0.62;;;;;6.40;1.00;;;;;;2268691;61;2038;-87
2021/11/19 04:28:46;188040.00;0.63;325.33;0.00;0.00;0.62;;;;;6.30;1.00;;;;;;2265345;61;1600;-88
2021/11/19 04:31:18;123884.00;0.41;214.78;0.00;0.00;0.62;;;;;6.30;1.00;;;;;;2265369;61;1037;-88
2021/11/19 04:33:46;20801.00;0.07;36.66;0.00;0.00;0.62;;;;;6.10;1.00;;;;;;2270886;61;1031;-87
2021/11/19 04:36:13;34543.00;0.12;60.45;92095.00;0.31;159.93;;;;;6.10;1.00;;;;;;2276878;61;1033;-89
2021/11/19 04:38:40;117176344.00;390.59;65169756.00;0.00;0.00;0.62;;;;;6.20;1.00;;;;;;2264583;61;1285;-87
2021/11/19 04:41:07;83099.00;0.28;144.39;0.00;0.00;0.62;;;;;5.90;1.00;;;;;;2264730;61;1009;-86
2021/11/19 04:43:36;7276.00;0.02;13.23;0.00;0.00;0.62;;;;;5.60;1.00;;;;;;2262630;61;990;-87
2021/11/19 04:46:05;93931.00;0.31;163.09;0.00;0.00;0.62;;;;;5.90;1.00;;;;;;2272705;61;1977;-87
2021/11/19 04:48:35;186098.00;0.62;321.99;44931.00;0.15;78.42;;;;;5.80;1.00;;;;;;2272667;61;1443;-87
2021/11/19 04:51:04;257488.00;0.86;444.83;95821.00;0.32;166.36;;;;;5.70;1.00;;;;;;2269267;61;1026;-88
2021/11/19 04:53:32;195370.00;0.65;337.95;78589.00;0.26;136.60;;;;;5.90;1.00;;;;;;2268572;61;995;-87
2021/11/19 04:55:59;258173.00;0.86;446.01;101010.00;0.34;175.32;;;;;5.90;1.00;;;;;;2261895;61;937;-87
2021/11/19 04:58:27;117819704.00;392.73;66250096.00;91882.00;0.31;159.56;;;;;5.60;1.00;;;;;;2268635;61;1480;-87
2021/11/19 05:00:56;225559.00;0.75;389.91;93680.00;0.31;162.66;;;;;5.50;1.00;;;;;;2270037;61;1036;-86
2021/11/19 05:03:24;176061.00;0.59;304.71;90874.00;0.30;157.82;;;;;5.40;1.00;;;;;;2268528;61;1066;-86
2021/11/19 05:05:53;17965.00;0.06;31.75;0.00;0.00;0.62;;;;;5.40;1.00;;;;;;2261889;61;2004;-86
2021/11/19 05:08:21;256723.00;0.86;443.51;101296.00;0.34;175.81;;;;;5.60;1.00;;;;;;2268572;61;1440;-87
2021/11/19 05:10:51;319279.00;1.06;551.06;90130.00;0.30;156.53;;;;;5.20;1.00;;;;;;2269245;61;1017;-86
2021/11/19 05:13:20;247138.00;0.82;427.03;96082.00;0.32;166.81;;;;;5.10;1.00;;;;;;2272722;61;1035;-88
2021/11/19 05:15:50;180939.00;0.60;313.11;52860.00;0.18;92.13;;;;;5.10;1.00;;;;;;2262594;61;984;-87
2021/11/19 05:18:17;207532.00;0.69;358.89;90931.00;0.30;157.92;;;;;5.10;1.00;;;;;;2265824;61;1376;-89
2021/11/19 05:20:44;323119.00;1.08;557.66;98944.00;0.33;171.75;;;;;5.50;1.00;;;;;;2268349;61;961;-89
2021/11/19 05:23:13;301924.00;1.01;521.23;125299.00;0.42;217.22;;;;;5.70;1.00;;;;;;2285255;61;1058;-87
2021/11/19 05:25:41;302515.00;1.01;522.24;114455.00;0.38;198.52;;;;;5.40;1.00;;;;;;2274812;61;1918;-89
2021/11/19 05:28:08;78450.00;0.26;136.36;0.00;0.00;0.62;;;;;5.40;1.00;;;;;;2285277;61;1446;-86
2021/11/19 05:30:36;118060640.00;393.54;66657720.00;117899568.00;393.00;66385032.00;;;;;5.30;1.00;;;;;;2278100;61;1159;-82
2021/11/19 05:33:03;51603.00;0.17;89.96;0.00;0.00;0.62;;;;;5.60;1.00;;;;;;2284993;61;986;-88
2021/11/19 05:35:30;117261408.00;390.87;65311936.00;0.00;0.00;0.62;;;;;6.20;1.20;;;;;;2278139;61;954;-88
2021/11/19 05:37:57;55569.00;0.19;96.82;0.00;0.00;0.62;;;;;6.10;1.00;;;;;;2281353;61;1324;-89
2021/11/19 05:40:26;117005752.00;390.02;64885296.00;0.00;0.00;0.62;;;;;6.30;1.00;;;;;;2274754;61;960;-88
2021/11/19 05:42:54;32272.00;0.11;56.52;0.00;0.00;0.62;;;;;6.30;1.00;;;;;;2281418;61;986;-89
2021/11/19 05:45:24;191240.00;0.64;330.84;0.00;0.00;0.62;;;;;6.70;1.00;;;;;;2276509;61;2009;-87
2021/11/19 05:47:51;62098.00;0.21;108.10;0.00;0.00;0.62;;;;;6.60;1.00;;;;;;2268425;61;1315;-87
2021/11/19 05:50:21;12388.00;0.04;22.09;0.00;0.00;0.62;;;;;6.70;2.60;;;;;;2265074;61;1034;-88
2021/11/19 05:52:52;89223.00;0.30;154.97;0.00;0.00;0.62;;;;;7.70;4.60;;;;;;2265051;61;993;-89
2021/11/19 05:55:24;221186.00;0.74;382.38;93068.00;0.31;161.60;;;;;8.60;3.30;;;;;;2265090;61;1018;-88
2021/11/19 05:57:53;192714.00;0.64;333.38;99903.00;0.33;173.40;;;;;8.90;2.10;;;;;;2268480;61;1366;-88
2021/11/19 06:00:22;232708.00;0.78;402.21;89991.00;0.30;156.29;;;;;9.30;1.00;;;;;;2268510;61;1016;-85
2021/11/19 06:02:50;397864.00;1.33;686.13;126966.00;0.42;220.10;;;;;9.40;1.00;;;;;;2270292;61;1023;-87
2021/11/19 06:05:18;259446.00;0.86;448.20;106859.00;0.36;185.41;;;;;9.70;1.00;;;;;;2278418;61;2010;-88
2021/11/19 06:07:46;188027.00;0.63;325.31;94362.00;0.31;163.84;;;;;9.80;1.00;;;;;;2285132;61;1820;-86
2021/11/19 06:10:16;328873.00;1.10;567.55;119368.00;0.40;206.99;;;;;9.60;1.00;;;;;;2276499;61;970;-88
2021/11/19 06:12:46;258860.00;0.86;447.19;92203.00;0.31;160.11;;;;;9.20;1.00;;;;;;2266507;61;1012;-89
2021/11/19 06:15:18;386765.00;1.29;667.05;86199.00;0.29;149.74;;;;;9.20;1.00;;;;;;2266561;61;1038;-87
2021/11/19 06:17:49;242240.00;0.81;418.60;88199.00;0.29;153.20;;;;;9.10;1.00;;;;;;2268327;61;1436;-87
2021/11/19 06:20:20;171269.00;0.57;296.45;98270.00;0.33;170.59;;;;;9.20;1.00;;;;;;2268439;61;1035;-87
2021/11/19 06:22:50;11917.00;0.04;21.27;0.00;0.00;0.62;;;;;9.00;1.00;;;;;;2268358;61;1024;-86
2021/11/19 06:25:22;134343.00;0.45;232.82;11167.00;0.04;19.97;;;;;8.80;1.00;;;;;;2264945;61;1992;-87
2021/11/19 06:27:51;77449.00;0.26;134.63;1568.00;0.01;3.34;;;;;8.60;1.00;;;;;;2264120;61;1447;-87
2021/11/19 06:30:22;27455.00;0.09;48.18;0.00;0.00;0.62;;;;;7.40;1.00;;;;;;2276453;61;1033;-87
2021/11/19 06:32:49;28228.00;0.09;49.52;0.00;0.00;0.62;;;;;6.50;1.00;;;;;;2276438;61;1037;-85
2021/11/19 06:35:17;62864.00;0.21;109.43;0.00;0.00;0.62;;;;;6.20;1.00;;;;;;2275243;61;976;-87
2021/11/19 06:37:45;182516.00;0.61;315.82;41967.00;0.14;73.29;;;;;5.80;1.00;;;;;;2285022;61;1406;-86
2021/11/19 06:40:16;42085.00;0.14;73.50;0.00;0.00;0.62;;;;;5.50;1.00;;;;;;2284944;61;1019;-86
2021/11/19 06:42:45;46480.00;0.15;81.10;0.00;0.00;0.62;;;;;5.40;1.00;;;;;;2276330;61;1095;-87
2021/11/19 06:45:14;46799.00;0.16;81.65;0.00;0.00;0.62;;;;;5.20;1.00;;;;;;2268201;61;2002;-87
2021/11/19 06:47:44;130423.00;0.43;226.06;0.00;0.00;0.62;;;;;5.10;1.00;;;;;;2264872;61;1314;-87
2021/11/19 06:50:13;246769.00;0.82;426.39;95026.00;0.32;164.99;;;;;5.20;1.00;;;;;;2264921;61;990;-86
2021/11/19 06:52:41;347900.00;1.16;600.25;95098.00;0.32;165.11;;;;;5.00;1.00;;;;;;2264161;61;942;-87
2021/11/19 06:55:09;206018.00;0.69;356.28;96891.00;0.32;168.21;;;;;4.90;1.00;;;;;;2260832;61;966;-87
2021/11/19 06:57:36;254801.00;0.85;440.21;94502.00;0.32;164.08;;;;;4.70;1.00;;;;;;2264064;61;1305;-87
2021/11/19 07:00:07;279678.00;0.93;482.98;99761.00;0.33;173.16;;;;;4.60;1.00;;;;;;2262203;61;1005;-88
2021/11/19 07:02:33;394560.00;1.32;680.45;115779.00;0.39;200.80;;;;;4.60;1.00;;;;;;2263052;61;1037;-87
2021/11/19 07:05:02;225937.00;0.75;390.56;94366.00;0.31;163.85;;;;;5.00;7.80;;;;;;2264098;61;1092;-87
2021/11/19 07:07:31;276859.00;0.92;478.14;90669.00;0.30;157.46;;;;;5.60;3.00;;;;;;2257374;61;1968;-87
2021/11/19 07:09:59;216017.00;0.72;373.49;81663.00;0.27;141.91;;;;;5.60;1.00;;;;;;2265467;61;1100;-85
2021/11/19 07:12:26;172314.00;0.57;298.25;98544.00;0.33;171.06;;;;;5.30;1.00;;;;;;2265466;61;1033;-86
2021/11/19 07:14:53;182457.00;0.61;315.72;102142.00;0.34;177.27;;;;;5.10;1.00;;;;;;2265547;61;1004;-87
2021/11/19 07:17:20;217666.00;0.73;376.33;99240.00;0.33;172.26;;;;;5.10;1.00;;;;;;2265465;61;1361;-86
2021/11/19 07:19:47;0.00;0.00;0.62;0.00;0.00;0.62;;;;;4.90;1.00;;;;;;2264013;61;1012;-88
2021/11/19 07:22:16;145799.00;0.49;252.57;0.00;0.00;0.62;;;;;5.00;1.00;;;;;;2259068;61;979;-86
2021/11/19 07:24:43;358035.00;1.19;617.67;0.00;0.00;0.62;;;;;5.20;1.00;;;;;;2269509;61;1002;-87
2021/11/19 07:27:11;382450.00;1.27;659.64;0.00;0.00;0.62;;;;;5.00;1.00;;;;;;2269468;61;1915;-86
2021/11/19 07:29:39;201771.00;0.67;348.97;0.00;0.00;0.62;;;;;4.90;1.00;;;;;;2269696;61;945;-86
2021/11/19 07:32:07;798171.00;2.66;1377.93;0.00;0.00;0.62;;;;;5.30;1.00;;;;;;2276397;61;902;-87
2021/11/19 07:34:34;91100.00;0.30;158.21;0.00;0.00;0.62;;;;;6.00;5.90;;;;;;2276186;61;946;-87
2021/11/19 07:37:02;232387.00;0.77;401.66;0.00;0.00;0.62;;;;;6.90;5.30;;;;;;2277425;61;1469;-88
2021/11/19 07:39:31;241532.00;0.81;417.39;0.00;0.00;0.62;;;;;7.30;4.30;;;;;;2284512;61;1025;-88
2021/11/19 07:41:58;179789.00;0.60;311.13;0.00;0.00;0.62;;;;;7.90;3.40;;;;;;2284680;61;1197;-86
2021/11/19 07:44:25;24806.00;0.08;43.59;0.00;0.00;0.62;;;;;8.40;1.70;;;;;;2284770;61;1125;-86
2021/11/19 07:46:52;123616.00;0.41;214.32;0.00;0.00;0.62;;;;;8.90;1.00;;;;;;2284705;61;1996;-86
2021/11/19 07:49:19;34344.00;0.11;60.10;0.00;0.00;0.62;;;;;9.20;1.00;;;;;;2284802;61;1060;-87
2021/11/19 07:51:49;92039.00;0.31;159.83;24535.00;0.08;43.12;;;;;9.30;1.00;;;;;;2280978;61;1025;-87
2021/11/19 07:54:17;65722.00;0.22;114.37;0.00;0.00;0.62;;;;;9.30;1.00;;;;;;2277602;61;956;-86
2021/11/19 07:56:46;8204.00;0.03;14.84;0.00;0.00;0.62;;;;;9.30;1.00;;;;;;2284793;61;1335;-86
2021/11/19 07:59:16;148524.00;0.50;257.26;0.00;0.00;0.62;;;;;9.80;1.00;;;;;;2277565;61;1073;-87
2021/11/19 08:01:44;115652.00;0.39;200.58;0.00;0.00;0.62;;;;;10.10;1.00;;;;;;2284775;61;1057;-86
2021/11/19 08:04:12;309820.00;1.03;534.80;0.00;0.00;0.62;;;;;10.40;1.00;;;;;;2284824;61;1089;-86
2021/11/19 08:06:40;34065.00;0.11;59.62;0.00;0.00;0.62;;;;;10.30;1.00;;;;;;2277540;61;2000;-86
2021/11/19 08:09:07;7370.00;0.02;13.39;0.00;0.00;0.62;;;;;10.00;1.00;;;;;;2280981;61;959;-85
2021/11/19 08:11:34;47339.00;0.16;82.58;0.00;0.00;0.62;;;;;9.20;1.00;;;;;;2284402;61;1013;-87
2021/11/19 08:14:05;0.00;0.00;0.62;0.00;0.00;0.62;;;;;9.30;1.00;;;;;;2284839;61;955;-86
2021/11/19 08:16:38;41403.00;0.14;72.32;0.00;0.00;0.62;;;;;9.10;1.00;;;;;;2277428;61;1432;-86
2021/11/19 08:19:07;100399.00;0.33;174.26;13323.00;0.04;23.71;;;;;9.20;1.20;;;;;;2284603;61;1090;-87
2021/11/19 08:21:33;17202.00;0.06;30.42;0.00;0.00;0.62;;;;;9.20;1.00;;;;;;2276092;61;970;-87
2021/11/19 08:24:03;161511.00;0.54;279.64;0.00;0.00;0.62;;;;;9.80;1.00;;;;;;2276160;61;1033;-88
2021/11/19 08:26:36;140991.00;0.47;244.28;0.00;0.00;0.62;;;;;10.20;1.00;;;;;;2269179;61;2022;-85
2021/11/19 08:29:06;185366.00;0.62;320.73;0.00;0.00;0.62;;;;;10.50;1.00;;;;;;2269265;61;960;-87
2021/11/19 08:31:33;171048.00;0.57;296.07;0.00;0.00;0.62;;;;;10.60;1.00;;;;;;2269396;61;943;-88
2021/11/19 08:34:00;103923.00;0.35;180.34;17926.00;0.06;31.68;;;;;10.40;1.00;;;;;;2276096;61;1031;-88
2021/11/19 08:36:29;84209.00;0.28;146.31;0.00;0.00;0.62;;;;;9.70;1.00;;;;;;2276146;61;1403;-87
2021/11/19 08:38:57;50172.00;0.17;87.48;0.00;0.00;0.62;;;;;9.10;1.00;;;;;;2270941;61;1010;-88
2021/11/19 08:41:24;137796.00;0.46;238.77;0.00;0.00;0.62;;;;;9.20;1.00;;;;;;2284630;61;1007;-89
2021/11/19 08:43:55;62346.00;0.21;108.53;0.00;0.00;0.62;;;;;9.70;1.00;;;;;;2284723;61;949;-89
2021/11/19 08:46:27;0.00;0.00;0.62;0.00;0.00;0.62;;;;;9.90;1.00;;;;;;2277433;61;1984;-89
2021/11/19 08:48:54;140188.00;0.47;242.89;0.00;0.00;0.62;;;;;10.40;1.00;;;;;;2275988;61;959;-88
2021/11/19 08:51:23;18896.00;0.06;33.36;0.00;0.00;0.62;;;;;10.70;1.00;;;;;;2269308;61;973;-89
2021/11/19 08:53:52;10994.00;0.04;19.67;0.00;0.00;0.62;;;;;10.90;1.00;;;;;;2276351;61;1021;-87
2021/11/19 08:59:06;69351.00;0.23;120.64;0.00;0.00;0.62;;;;;11.70;1.00;;;;;;2267938;61;988;-88
2021/11/19 09:01:35;59595.00;0.20;103.78;0.00;0.00;0.62;;;;;11.50;1.00;;;;;;2268480;61;957;-87
2021/11/19 09:04:06;0.00;0.00;0.62;0.00;0.00;0.62;;;;;10.70;1.00;;;;;;2264486;61;1036;-87
2021/11/19 09:06:34;9572.00;0.03;17.21;0.00;0.00;0.62;;;;;11.00;1.00;;;;;;2265724;61;1939;-88
2021/11/19 09:09:01;0.00;0.00;0.62;0.00;0.00;0.62;;;;;11.00;1.00;;;;;;2264459;61;981;-88
2021/11/19 09:11:28;216912.00;0.72;375.03;0.00;0.00;0.62;;;;;9.90;1.00;;;;;;2264379;61;1470;-87
2021/11/19 09:13:57;56760.00;0.19;98.88;0.00;0.00;0.62;;;;;10.40;1.00;;;;;;2264483;61;1022;-86
2021/11/19 09:16:27;74202.00;0.25;129.02;0.00;0.00;0.62;;;;;10.60;1.00;;;;;;2264511;61;1305;-87
2021/11/19 09:19:20;12769.00;0.04;22.75;0.00;0.00;0.62;;;;;10.10;1.00;;;;;;2260353;61;1019;-87
2021/11/19 09:21:50;23988.00;0.08;42.18;0.00;0.00;0.62;;;;;9.20;1.00;;;;;;2255239;61;947;-87
2021/11/19 09:24:20;38154.00;0.13;66.69;0.00;0.00;0.62;;;;;8.70;1.00;;;;;;2256465;61;1077;-87
2021/11/19 09:26:51;0.00;0.00;0.62;0.00;0.00;0.62;;;;;8.70;1.00;;;;;;2256433;61;1922;-88
2021/11/19 09:29:22;115903.00;0.39;201.01;0.00;0.00;0.62;;;;;9.50;1.00;;;;;;2253878;61;942;-87
2021/11/19 09:31:50;97833.00;0.33;169.83;0.00;0.00;0.62;;;;;10.10;1.00;;;;;;2257182;61;1025;-87
2021/11/19 09:34:20;28443.00;0.09;49.89;0.00;0.00;0.62;;;;;10.40;1.00;;;;;;2256426;61;1020;-88
2021/11/19 09:36:48;111768.00;0.37;193.88;0.00;0.00;0.62;;;;;11.00;1.00;;;;;;2248336;61;1317;-87
2021/11/19 09:39:17;117914840.00;393.05;66410848.00;0.00;0.00;0.62;;;;;10.90;1.00;;;;;;2241399;61;977;-89
2021/11/19 09:41:51;27878.00;0.09;48.91;0.00;0.00;0.62;;;;;10.80;1.00;;;;;;2245352;61;1089;-89
2021/11/19 09:44:55;142744.00;0.48;247.30;0.00;0.00;0.62;;;;;10.90;1.00;;;;;;2248382;61;1064;-88
2021/11/19 09:48:01;0.00;0.00;0.62;0.00;0.00;0.62;;;;;11.50;1.00;;;;;;2248880;61;2004;-89
2021/11/19 09:50:55;11906.00;0.04;21.25;0.00;0.00;0.62;;;;;12.00;1.00;;;;;;2240551;62;1027;-89
2021/11/19 09:54:12;0.00;0.00;0.62;0.00;0.00;0.62;;;;;12.30;1.00;;;;;;2240475;62;1746;-87
2021/11/19 09:56:55;107388.00;0.36;186.32;0.00;0.00;0.62;;;;;12.10;1.00;;;;;;2242098;62;1412;-88
2021/11/19 09:59:33;35539.00;0.12;62.17;0.00;0.00;0.62;;;;;12.10;1.00;;;;;;2240458;62;1100;-88
2021/11/19 10:02:37;24396.00;0.08;42.88;0.00;0.00;0.62;;;;;12.40;1.00;;;;;;2240502;62;1116;-88
2021/11/19 10:05:25;0.00;0.00;0.62;0.00;0.00;0.62;;;;;12.90;1.00;;;;;;2224634;62;1024;-89
2021/11/19 10:08:21;0.00;0.00;0.62;0.00;0.00;0.62;;;;;12.40;1.00;;;;;;2221433;62;1998;-86
2021/11/19 10:11:00;45442.00;0.15;79.30;0.00;0.00;0.62;;;;;12.40;1.00;;;;;;2214441;62;1028;-88
2021/11/19 10:13:39;34706.00;0.12;60.73;0.00;0.00;0.62;;;;;12.40;1.00;;;;;;2214597;62;1043;-87
2021/11/19 10:16:14;17879.00;0.06;31.60;0.00;0.00;0.62;;;;;12.70;1.00;;;;;;2220801;62;1046;-86
2021/11/19 10:18:45;63516.00;0.21;110.55;0.00;0.00;0.62;;;;;12.60;1.00;;;;;;2221446;62;1335;-87
2021/11/19 10:21:16;253756.00;0.85;438.41;0.00;0.00;0.62;;;;;12.80;1.00;;;;;;2228391;62;1064;-87
2021/11/19 10:23:48;207491.00;0.69;358.82;0.00;0.00;0.62;;;;;12.20;1.00;;;;;;2240670;61;985;-88
2021/11/19 10:26:22;246034.00;0.82;425.13;0.00;0.00;0.62;;;;;12.70;1.00;;;;;;2252175;61;1923;-88
2021/11/19 10:28:53;332114.00;1.11;573.12;0.00;0.00;0.62;;;;;12.70;1.00;;;;;;2252268;61;1140;-90
2021/11/19 10:31:23;156009.00;0.52;270.16;0.00;0.00;0.62;;;;;13.00;1.00;;;;;;2252237;61;1059;-88
2021/11/19 10:34:08;442303.00;1.47;762.54;0.00;0.00;0.62;;;;;12.20;1.00;;;;;;2255090;61;1157;-88
2021/11/19 10:36:41;96852.00;0.32;168.14;0.00;0.00;0.62;;;;;11.80;1.00;;;;;;2256889;61;1443;-87
2021/11/19 10:39:49;289471.00;0.96;499.82;0.00;0.00;0.62;;;;;12.10;1.00;;;;;;2256222;61;1012;-87
2021/11/19 10:42:46;363089.00;1.21;626.36;0.00;0.00;0.62;;;;;12.10;1.00;;;;;;2253055;61;1096;-85
2021/11/19 10:45:49;165166.00;0.55;285.94;0.00;0.00;0.62;;;;;11.80;1.00;;;;;;2259175;61;1256;-85
2021/11/19 10:49:04;24442.00;0.08;42.96;0.00;0.00;0.62;;;;;11.40;1.00;;;;;;2268817;61;1967;-85
2021/11/19 10:52:01;25647.00;0.09;45.05;0.00;0.00;0.62;;;;;11.50;1.00;;;;;;2255732;61;1538;-86
2021/11/19 10:55:12;69542.00;0.23;120.97;0.00;0.00;0.62;;;;;11.40;1.00;;;;;;2271663;61;1049;-86
2021/11/19 10:58:13;12052.00;0.04;21.50;0.00;0.00;0.62;;;;;11.40;1.00;;;;;;2280585;61;1263;-85
2021/11/19 11:00:53;0.00;0.00;0.62;0.00;0.00;0.62;;;;;11.00;1.00;;;;;;2284820;61;1202;-85
2021/11/19 11:03:24;0.00;0.00;0.62;0.00;0.00;0.62;;;;;10.90;1.00;;;;;;2284017;61;1140;-84
2021/11/19 11:05:57;113830.00;0.38;197.44;26560.00;0.09;46.63;;;;;11.20;1.00;;;;;;2284295;61;1159;-85
2021/11/19 11:08:27;393450.00;1.31;678.55;25784.00;0.09;45.28;;;;;11.20;1.00;;;;;;2284786;61;1997;-86
2021/11/19 11:10:59;113179.00;0.38;196.32;46226.00;0.15;80.66;;;;;11.10;1.00;;;;;;2284458;61;1080;-85
2021/11/19 11:13:34;3519.00;0.01;6.72;0.00;0.00;0.62;;;;;11.30;1.00;;;;;;2284410;61;1107;-85
2021/11/19 11:16:07;68873.00;0.23;119.81;0.00;0.00;0.62;;;;;11.70;1.00;;;;;;2277029;61;1179;-85
2021/11/19 11:18:37;124750.00;0.42;216.28;0.00;0.00;0.62;;;;;12.00;1.00;;;;;;2284292;61;1426;-84
2021/11/19 11:21:27;81871.00;0.27;142.27;0.00;0.00;0.62;;;;;12.20;1.00;;;;;;2284409;61;1086;-85
2021/11/19 11:24:17;94168.00;0.31;163.50;0.00;0.00;0.62;;;;;12.50;1.00;;;;;;2284325;61;1263;-85
2021/11/19 11:26:50;186293.00;0.62;322.33;45180.00;0.15;78.85;;;;;12.70;1.00;;;;;;2284076;61;2016;-85
2021/11/19 11:29:45;39724.00;0.13;69.41;0.00;0.00;0.62;;;;;12.60;1.00;;;;;;2284665;61;1104;-85
2021/11/19 11:32:35;92461.00;0.31;160.56;0.00;0.00;0.62;;;;;13.10;1.00;;;;;;2284318;61;1614;-85
2021/11/19 11:35:12;64746.00;0.22;112.68;0.00;0.00;0.62;;;;;13.50;1.00;;;;;;2284443;61;1075;-86
2021/11/19 11:38:10;44733.00;0.15;78.08;0.00;0.00;0.62;;;;;13.40;1.00;;;;;;2284194;61;1384;-86
2021/11/19 11:40:41;20104.00;0.07;35.45;0.00;0.00;0.62;;;;;13.40;1.00;;;;;;2283958;61;1817;-86
2021/11/19 11:43:23;29226.00;0.10;51.24;0.00;0.00;0.62;;;;;13.50;1.00;;;;;;2284170;61;1116;-86
2021/11/19 11:45:53;158210.00;0.53;273.96;8122.00;0.03;14.70;;;;;12.70;1.00;;;;;;2277080;61;1164;-85
2021/11/19 11:48:33;90715.00;0.30;157.54;0.00;0.00;0.62;;;;;12.60;1.00;;;;;;2284674;61;2006;-86
2021/11/19 11:51:09;16563.00;0.06;29.32;0.00;0.00;0.62;;;;;13.20;1.00;;;;;;2284232;61;1192;-86
2021/11/19 11:53:45;139558.00;0.47;241.81;31761.00;0.11;55.63;;;;;13.20;1.00;;;;;;2284085;61;1072;-85
2021/11/19 11:56:21;53792.00;0.18;93.74;0.00;0.00;0.62;;;;;13.10;1.00;;;;;;2276662;61;1085;-85
2021/11/19 12:02:33;264736.00;0.88;457.29;65042.00;0.22;113.19;;;;;13.10;1.00;;;;;;2283716;61;716;-85
2021/11/19 12:05:22;50197.00;0.17;87.53;0.00;0.00;0.62;;;;;13.20;1.00;;;;;;2279473;61;1152;-85
2021/11/19 12:07:57;153792.00;0.51;266.34;8092.00;0.03;14.64;;;;;13.80;1.00;;;;;;2283352;61;2017;-86
2021/11/19 12:10:39;0.00;0.00;0.62;0.00;0.00;0.62;;;;;14.10;1.00;;;;;;2283826;61;1122;-86
2021/11/19 12:13:17;97996.00;0.33;170.11;31083.00;0.10;54.46;;;;;14.20;1.00;;;;;;2283453;61;1146;-85
2021/11/19 12:15:52;13686.00;0.05;24.33;0.00;0.00;0.62;;;;;14.10;1.00;;;;;;2283418;61;1135;-86
2021/11/19 12:18:32;95257.00;0.32;165.38;0.00;0.00;0.62;;;;;14.00;1.00;;;;;;2276114;61;1470;-85
2021/11/19 12:21:05;0.00;0.00;0.62;0.00;0.00;0.62;;;;;14.00;1.00;;;;;;2283156;61;1179;-85
2021/11/19 12:23:44;128820.00;0.43;223.29;0.00;0.00;0.62;;;;;13.70;1.00;;;;;;2283452;61;1146;-86
2021/11/19 12:26:43;28412.00;0.09;49.83;0.00;0.00;0.62;;;;;14.00;1.00;;;;;;2283571;61;1179;-85
2021/11/19 12:29:20;0.00;0.00;0.62;0.00;0.00;0.62;;;;;13.80;1.00;;;;;;2276780;61;2008;-85
2021/11/19 12:32:00;9001.00;0.03;16.22;0.00;0.00;0.62;;;;;13.70;1.00;;;;;;2276890;61;1145;-86
2021/11/19 12:34:34;40466.00;0.13;70.69;0.00;0.00;0.62;;;;;13.90;1.00;;;;;;2284529;61;1116;-86
2021/11/19 12:37:07;0.00;0.00;0.62;0.00;0.00;0.62;;;;;14.30;1.00;;;;;;2284254;61;1465;-86
2021/11/19 12:39:37;118893.00;0.40;206.17;0.00;0.00;0.62;;;;;14.20;1.00;;;;;;2284283;61;1119;-85
2021/11/19 12:42:10;121751.00;0.41;211.10;0.00;0.00;0.62;;;;;14.10;1.00;;;;;;2283947;61;1165;-85
2021/11/19 12:44:57;75472.00;0.25;131.22;0.00;0.00;0.62;;;;;14.30;1.00;;;;;;2283935;61;1051;-85